sensor_id;sensor_type;location;lat;lon;timestamp;temperature;humidity
31455;DHT22;18084;53.028;8.834;2022-11-27T00:00:30;5.20;99.90
31455;DHT22;18084;53.028;8.834;2022-11-27T00:02:56;5.10;99.90
31455;DHT22;18084;53.028;8.834;2022-11-27T00:05:21;5.20;99.90
31455;DHT22;18084;53.028;8.834;2022-11-27T00:07:47;5.20;99.90
31455;DHT22;18084;53.028;8.834;2022-11-27T00:10:12;5.20;99.90
31455;DHT22;18084;53.028;8.834;2022-11-27T00:12:38;5.20;99.90
31455;DHT22;18084;53.028;8.834;2022-11-27T00:15:03;5.20;99.90
31455;DHT22;18084;53.028;8.834;2022-11-27T00:17:29;5.20;99.90
31455;DHT22;18084;53.028;8.834;2022-11-27T00:19:55;5.20;99.90
31455;DHT22;18084;53.028;8.834;2022-11-27T00:22:20;5.20;99.90
31455;DHT22;18084;53.028;8.834;2022-11-27T00:24:46;5.20;99.90
31455;DHT22;18084;53.028;8.834;2022-11-27T00:27:11;5.20;99.90
31455;DHT22;18084;53.028;8.834;2022-11-27T00:29:37;5.20;99.90
31455;DHT22;18084;53.028;8.834;2022-11-27T00:32:02;5.20;99.90
31455;DHT22;18084;53.028;8.834;2022-11-27T00:34:30;5.20;99.90
31455;DHT22;18084;53.028;8.834;2022-11-27T00:36:56;5.30;99.90
31455;DHT22;18084;53.028;8.834;2022-11-27T00:39:21;5.20;99.90
31455;DHT22;18084;53.028;8.834;2022-11-27T00:41:47;5.30;99.90
31455;DHT22;18084;53.028;8.834;2022-11-27T00:44:12;5.30;99.90
31455;DHT22;18084;53.028;8.834;2022-11-27T00:46:38;5.30;99.90
31455;DHT22;18084;53.028;8.834;2022-11-27T00:49:06;5.40;99.90
31455;DHT22;18084;53.028;8.834;2022-11-27T00:51:32;5.30;99.90
31455;DHT22;18084;53.028;8.834;2022-11-27T00:53:57;5.40;99.90
31455;DHT22;18084;53.028;8.834;2022-11-27T00:56:24;5.40;99.90
31455;DHT22;18084;53.028;8.834;2022-11-27T00:58:50;5.40;99.90
31455;DHT22;18084;53.028;8.834;2022-11-27T01:01:17;5.40;99.90
31455;DHT22;18084;53.028;8.834;2022-11-27T01:03:43;5.50;99.90
31455;DHT22;18084;53.028;8.834;2022-11-27T01:06:09;5.50;99.90
31455;DHT22;18084;53.028;8.834;2022-11-27T01:08:34;5.50;99.90
31455;DHT22;18084;53.028;8.834;2022-11-27T01:11:00;5.50;99.90
31455;DHT22;18084;53.028;8.834;2022-11-27T01:13:27;5.50;99.90
31455;DHT22;18084;53.028;8.834;2022-11-27T01:18:27;5.50;99.90
31455;DHT22;18084;53.028;8.834;2022-11-27T01:20:53;5.50;99.90
31455;DHT22;18084;53.028;8.834;2022-11-27T01:23:18;5.50;99.90
31455;DHT22;18084;53.028;8.834;2022-11-27T01:25:44;5.50;99.90
31455;DHT22;18084;53.028;8.834;2022-11-27T01:28:09;5.50;99.90
31455;DHT22;18084;53.028;8.834;2022-11-27T01:30:38;5.50;99.90
31455;DHT22;18084;53.028;8.834;2022-11-27T01:33:04;5.60;99.90
31455;DHT22;18084;53.028;8.834;2022-11-27T01:35:29;5.60;99.90
31455;DHT22;18084;53.028;8.834;2022-11-27T01:37:55;5.60;99.90
31455;DHT22;18084;53.028;8.834;2022-11-27T01:40:21;5.60;99.90
31455;DHT22;18084;53.028;8.834;2022-11-27T01:42:46;5.60;99.90
31455;DHT22;18084;53.028;8.834;2022-11-27T01:45:14;5.60;99.90
31455;DHT22;18084;53.028;8.834;2022-11-27T01:47:50;5.50;99.90
31455;DHT22;18084;53.028;8.834;2022-11-27T01:50:20;5.60;99.90
31455;DHT22;18084;53.028;8.834;2022-11-27T01:52:47;5.60;99.90
31455;DHT22;18084;53.028;8.834;2022-11-27T01:55:20;5.60;99.90
31455;DHT22;18084;53.028;8.834;2022-11-27T01:57:50;5.60;99.90
31455;DHT22;18084;53.028;8.834;2022-11-27T02:00:17;5.50;99.90
31455;DHT22;18084;53.028;8.834;2022-11-27T02:02:43;5.60;99.90
31455;DHT22;18084;53.028;8.834;2022-11-27T02:05:10;5.50;99.90
31455;DHT22;18084;53.028;8.834;2022-11-27T02:07:35;5.50;99.90
31455;DHT22;18084;53.028;8.834;2022-11-27T02:10:02;5.50;99.90
31455;DHT22;18084;53.028;8.834;2022-11-27T02:13:10;5.40;99.90
31455;DHT22;18084;53.028;8.834;2022-11-27T02:15:21;5.40;99.90
31455;DHT22;18084;53.028;8.834;2022-11-27T02:20:39;5.30;99.90
31455;DHT22;18084;53.028;8.834;2022-11-27T02:26:03;5.20;99.90
31455;DHT22;18084;53.028;8.834;2022-11-27T02:31:15;5.10;99.90
31455;DHT22;18084;53.028;8.834;2022-11-27T02:33:43;5.00;99.90
31455;DHT22;18084;53.028;8.834;2022-11-27T02:36:13;5.00;99.90
31455;DHT22;18084;53.028;8.834;2022-11-27T02:38:43;4.90;99.90
31455;DHT22;18084;53.028;8.834;2022-11-27T02:41:13;4.90;99.90
31455;DHT22;18084;53.028;8.834;2022-11-27T02:43:40;4.90;99.90
31455;DHT22;18084;53.028;8.834;2022-11-27T02:46:07;4.80;99.90
31455;DHT22;18084;53.028;8.834;2022-11-27T02:48:37;4.80;99.90
31455;DHT22;18084;53.028;8.834;2022-11-27T02:51:04;4.80;99.90
31455;DHT22;18084;53.028;8.834;2022-11-27T02:53:30;4.70;99.90
31455;DHT22;18084;53.028;8.834;2022-11-27T02:55:57;4.70;99.90
31455;DHT22;18084;53.028;8.834;2022-11-27T02:58:24;4.60;99.90
31455;DHT22;18084;53.028;8.834;2022-11-27T03:00:50;4.60;99.90
31455;DHT22;18084;53.028;8.834;2022-11-27T03:03:19;4.60;99.90
31455;DHT22;18084;53.028;8.834;2022-11-27T03:05:46;4.60;99.90
31455;DHT22;18084;53.028;8.834;2022-11-27T03:08:16;4.60;99.90
31455;DHT22;18084;53.028;8.834;2022-11-27T03:10:57;4.50;99.90
31455;DHT22;18084;53.028;8.834;2022-11-27T03:13:25;4.40;99.90
31455;DHT22;18084;53.028;8.834;2022-11-27T03:16:13;4.40;99.90
31455;DHT22;18084;53.028;8.834;2022-11-27T03:18:38;4.30;99.90
31455;DHT22;18084;53.028;8.834;2022-11-27T03:21:09;4.30;99.90
31455;DHT22;18084;53.028;8.834;2022-11-27T03:23:37;4.20;99.90
31455;DHT22;18084;53.028;8.834;2022-11-27T03:26:03;4.20;99.90
31455;DHT22;18084;53.028;8.834;2022-11-27T03:28:28;4.10;99.90
31455;DHT22;18084;53.028;8.834;2022-11-27T03:30:54;4.00;99.90
31455;DHT22;18084;53.028;8.834;2022-11-27T03:33:20;4.00;99.90
31455;DHT22;18084;53.028;8.834;2022-11-27T03:35:45;3.90;99.90
31455;DHT22;18084;53.028;8.834;2022-11-27T03:38:11;3.90;99.90
31455;DHT22;18084;53.028;8.834;2022-11-27T03:40:59;3.90;99.90
31455;DHT22;18084;53.028;8.834;2022-11-27T03:43:22;3.80;99.90
31455;DHT22;18084;53.028;8.834;2022-11-27T03:45:56;3.80;99.90
31455;DHT22;18084;53.028;8.834;2022-11-27T03:48:30;3.70;99.90
31455;DHT22;18084;53.028;8.834;2022-11-27T04:50:28;3.50;99.90
31455;DHT22;18084;53.028;8.834;2022-11-27T04:52:54;3.20;99.90
31455;DHT22;18084;53.028;8.834;2022-11-27T04:55:20;3.40;99.90
31455;DHT22;18084;53.028;8.834;2022-11-27T04:57:45;3.90;99.90
31455;DHT22;18084;53.028;8.834;2022-11-27T05:00:11;3.40;99.90
31455;DHT22;18084;53.028;8.834;2022-11-27T05:02:36;3.40;99.90
31455;DHT22;18084;53.028;8.834;2022-11-27T05:05:02;3.30;99.90
31455;DHT22;18084;53.028;8.834;2022-11-27T05:07:27;3.30;99.90
31455;DHT22;18084;53.028;8.834;2022-11-27T05:09:53;3.30;99.90
31455;DHT22;18084;53.028;8.834;2022-11-27T05:12:18;3.20;99.90
31455;DHT22;18084;53.028;8.834;2022-11-27T05:14:44;3.20;99.90
31455;DHT22;18084;53.028;8.834;2022-11-27T05:17:09;3.20;99.90
31455;DHT22;18084;53.028;8.834;2022-11-27T05:19:35;3.10;99.90
31455;DHT22;18084;53.028;8.834;2022-11-27T05:22:00;3.10;99.90
31455;DHT22;18084;53.028;8.834;2022-11-27T05:24:26;3.10;99.90
31455;DHT22;18084;53.028;8.834;2022-11-27T05:26:52;3.10;99.90
31455;DHT22;18084;53.028;8.834;2022-11-27T05:29:18;3.00;99.90
31455;DHT22;18084;53.028;8.834;2022-11-27T05:31:44;2.90;99.90
31455;DHT22;18084;53.028;8.834;2022-11-27T05:34:10;2.90;99.90
31455;DHT22;18084;53.028;8.834;2022-11-27T05:36:35;2.90;99.90
31455;DHT22;18084;53.028;8.834;2022-11-27T05:39:02;2.90;99.90
31455;DHT22;18084;53.028;8.834;2022-11-27T05:41:28;2.80;99.90
31455;DHT22;18084;53.028;8.834;2022-11-27T05:43:54;2.80;99.90
31455;DHT22;18084;53.028;8.834;2022-11-27T05:46:20;2.70;99.90
31455;DHT22;18084;53.028;8.834;2022-11-27T05:48:46;2.70;99.90
31455;DHT22;18084;53.028;8.834;2022-11-27T05:51:11;2.70;99.90
31455;DHT22;18084;53.028;8.834;2022-11-27T05:53:37;2.70;99.90
31455;DHT22;18084;53.028;8.834;2022-11-27T05:56:03;2.70;99.90
31455;DHT22;18084;53.028;8.834;2022-11-27T05:58:29;2.70;99.90
31455;DHT22;18084;53.028;8.834;2022-11-27T06:00:55;2.60;99.90
31455;DHT22;18084;53.028;8.834;2022-11-27T06:03:20;2.60;99.90
31455;DHT22;18084;53.028;8.834;2022-11-27T06:05:46;2.60;99.90
31455;DHT22;18084;53.028;8.834;2022-11-27T06:08:11;2.50;99.90
31455;DHT22;18084;53.028;8.834;2022-11-27T06:10:37;2.50;99.90
31455;DHT22;18084;53.028;8.834;2022-11-27T06:13:03;2.50;99.90
31455;DHT22;18084;53.028;8.834;2022-11-27T06:15:28;2.40;99.90
31455;DHT22;18084;53.028;8.834;2022-11-27T06:17:54;2.40;99.90
31455;DHT22;18084;53.028;8.834;2022-11-27T06:20:19;2.40;99.90
31455;DHT22;18084;53.028;8.834;2022-11-27T06:22:45;2.40;99.90
31455;DHT22;18084;53.028;8.834;2022-11-27T06:25:10;2.40;99.90
31455;DHT22;18084;53.028;8.834;2022-11-27T06:27:36;2.40;99.90
31455;DHT22;18084;53.028;8.834;2022-11-27T06:30:01;2.40;99.90
31455;DHT22;18084;53.028;8.834;2022-11-27T06:32:27;2.20;99.90
31455;DHT22;18084;53.028;8.834;2022-11-27T06:34:53;2.30;99.90
31455;DHT22;18084;53.028;8.834;2022-11-27T06:37:18;2.30;99.90
31455;DHT22;18084;53.028;8.834;2022-11-27T06:39:44;2.30;99.90
31455;DHT22;18084;53.028;8.834;2022-11-27T06:42:09;2.20;99.90
31455;DHT22;18084;53.028;8.834;2022-11-27T06:44:35;4.50;99.90
31455;DHT22;18084;53.028;8.834;2022-11-27T06:47:00;2.30;99.90
31455;DHT22;18084;53.028;8.834;2022-11-27T06:49:26;2.30;99.90
31455;DHT22;18084;53.028;8.834;2022-11-27T06:51:51;2.30;99.90
31455;DHT22;18084;53.028;8.834;2022-11-27T06:54:17;2.30;99.90
31455;DHT22;18084;53.028;8.834;2022-11-27T06:56:42;2.40;99.90
31455;DHT22;18084;53.028;8.834;2022-11-27T06:59:09;2.40;99.90
31455;DHT22;18084;53.028;8.834;2022-11-27T07:01:35;2.40;99.90
31455;DHT22;18084;53.028;8.834;2022-11-27T07:04:01;2.30;99.90
31455;DHT22;18084;53.028;8.834;2022-11-27T07:06:27;2.40;99.90
31455;DHT22;18084;53.028;8.834;2022-11-27T07:08:53;3.00;99.90
31455;DHT22;18084;53.028;8.834;2022-11-27T07:11:20;2.40;99.90
31455;DHT22;18084;53.028;8.834;2022-11-27T07:13:46;2.40;99.90
31455;DHT22;18084;53.028;8.834;2022-11-27T07:16:12;2.40;99.90
31455;DHT22;18084;53.028;8.834;2022-11-27T07:18:41;2.40;99.90
31455;DHT22;18084;53.028;8.834;2022-11-27T07:21:07;2.30;99.90
31455;DHT22;18084;53.028;8.834;2022-11-27T07:23:33;2.30;99.90
31455;DHT22;18084;53.028;8.834;2022-11-27T07:26:03;2.30;99.90
31455;DHT22;18084;53.028;8.834;2022-11-27T07:28:29;2.30;99.90
31455;DHT22;18084;53.028;8.834;2022-11-27T07:30:55;2.40;99.90
31455;DHT22;18084;53.028;8.834;2022-11-27T07:33:21;2.50;99.90
31455;DHT22;18084;53.028;8.834;2022-11-27T07:35:46;2.50;99.90
31455;DHT22;18084;53.028;8.834;2022-11-27T07:38:12;2.50;99.90
31455;DHT22;18084;53.028;8.834;2022-11-27T07:40:37;2.50;99.90
31455;DHT22;18084;53.028;8.834;2022-11-27T07:43:03;2.60;99.90
31455;DHT22;18084;53.028;8.834;2022-11-27T07:45:28;2.50;99.90
31455;DHT22;18084;53.028;8.834;2022-11-27T07:47:54;2.50;99.90
31455;DHT22;18084;53.028;8.834;2022-11-27T07:50:19;2.50;99.90
31455;DHT22;18084;53.028;8.834;2022-11-27T07:52:44;2.60;99.90
31455;DHT22;18084;53.028;8.834;2022-11-27T07:55:10;2.20;99.90
31455;DHT22;18084;53.028;8.834;2022-11-27T07:57:35;2.60;99.90
31455;DHT22;18084;53.028;8.834;2022-11-27T08:00:01;2.60;99.90
31455;DHT22;18084;53.028;8.834;2022-11-27T08:02:27;5.10;99.90
31455;DHT22;18084;53.028;8.834;2022-11-27T08:04:52;2.70;99.90
31455;DHT22;18084;53.028;8.834;2022-11-27T08:07:18;2.70;99.90
31455;DHT22;18084;53.028;8.834;2022-11-27T08:09:43;2.70;99.90
31455;DHT22;18084;53.028;8.834;2022-11-27T08:12:09;2.70;99.90
31455;DHT22;18084;53.028;8.834;2022-11-27T08:14:34;2.70;99.90
31455;DHT22;18084;53.028;8.834;2022-11-27T08:17:00;2.70;99.90
31455;DHT22;18084;53.028;8.834;2022-11-27T08:19:25;2.70;99.90
31455;DHT22;18084;53.028;8.834;2022-11-27T08:21:51;2.80;99.90
31455;DHT22;18084;53.028;8.834;2022-11-27T08:24:16;2.90;99.90
31455;DHT22;18084;53.028;8.834;2022-11-27T08:26:42;3.00;99.90
31455;DHT22;18084;53.028;8.834;2022-11-27T08:29:09;3.10;99.90
31455;DHT22;18084;53.028;8.834;2022-11-27T08:31:35;3.10;99.90
31455;DHT22;18084;53.028;8.834;2022-11-27T08:34:00;3.10;99.90
31455;DHT22;18084;53.028;8.834;2022-11-27T08:36:26;3.10;99.90
31455;DHT22;18084;53.028;8.834;2022-11-27T08:38:52;3.00;99.90
31455;DHT22;18084;53.028;8.834;2022-11-27T08:41:17;3.00;99.90
31455;DHT22;18084;53.028;8.834;2022-11-27T08:43:43;3.00;99.90
31455;DHT22;18084;53.028;8.834;2022-11-27T08:46:08;3.00;99.90
31455;DHT22;18084;53.028;8.834;2022-11-27T08:48:34;2.90;99.90
31455;DHT22;18084;53.028;8.834;2022-11-27T08:51:03;2.90;99.90
31455;DHT22;18084;53.028;8.834;2022-11-27T08:53:29;2.90;99.90
31455;DHT22;18084;53.028;8.834;2022-11-27T08:56:03;2.90;99.90
31455;DHT22;18084;53.028;8.834;2022-11-27T08:58:29;3.70;99.90
31455;DHT22;18084;53.028;8.834;2022-11-27T09:00:54;3.20;99.90
31455;DHT22;18084;53.028;8.834;2022-11-27T09:03:20;3.90;99.90
31455;DHT22;18084;53.028;8.834;2022-11-27T09:05:45;4.70;99.90
31455;DHT22;18084;53.028;8.834;2022-11-27T09:08:10;5.70;99.90
31455;DHT22;18084;53.028;8.834;2022-11-27T09:10:40;6.60;99.90
31455;DHT22;18084;53.028;8.834;2022-11-27T09:13:06;6.80;99.90
31455;DHT22;18084;53.028;8.834;2022-11-27T09:15:31;6.40;99.90
31455;DHT22;18084;53.028;8.834;2022-11-27T09:17:57;5.80;99.90
31455;DHT22;18084;53.028;8.834;2022-11-27T09:20:22;5.40;99.90
31455;DHT22;18084;53.028;8.834;2022-11-27T09:22:47;5.10;99.90
31455;DHT22;18084;53.028;8.834;2022-11-27T09:25:13;4.70;99.90
31455;DHT22;18084;53.028;8.834;2022-11-27T09:27:38;4.40;99.90
31455;DHT22;18084;53.028;8.834;2022-11-27T09:30:05;4.20;99.90
31455;DHT22;18084;53.028;8.834;2022-11-27T09:32:31;4.10;99.90
31455;DHT22;18084;53.028;8.834;2022-11-27T09:34:56;4.00;99.90
31455;DHT22;18084;53.028;8.834;2022-11-27T09:37:22;4.00;99.90
31455;DHT22;18084;53.028;8.834;2022-11-27T09:39:47;3.90;99.90
31455;DHT22;18084;53.028;8.834;2022-11-27T09:42:23;3.90;99.90
31455;DHT22;18084;53.028;8.834;2022-11-27T09:44:54;3.90;99.90
31455;DHT22;18084;53.028;8.834;2022-11-27T09:47:39;3.90;99.90
31455;DHT22;18084;53.028;8.834;2022-11-27T10:36:29;5.00;99.90
31455;DHT22;18084;53.028;8.834;2022-11-27T10:38:56;5.10;99.90
31455;DHT22;18084;53.028;8.834;2022-11-27T10:41:43;5.20;99.90
31455;DHT22;18084;53.028;8.834;2022-11-27T10:44:27;5.20;99.90
31455;DHT22;18084;53.028;8.834;2022-11-27T10:46:55;5.30;99.90
31455;DHT22;18084;53.028;8.834;2022-11-27T10:49:22;5.30;99.90
31455;DHT22;18084;53.028;8.834;2022-11-27T10:51:48;5.40;99.90
31455;DHT22;18084;53.028;8.834;2022-11-27T10:54:26;5.50;99.90
31455;DHT22;18084;53.028;8.834;2022-11-27T10:56:59;5.50;99.90
31455;DHT22;18084;53.028;8.834;2022-11-27T10:59:32;5.60;99.90
31455;DHT22;18084;53.028;8.834;2022-11-27T11:01:59;5.70;99.90
31455;DHT22;18084;53.028;8.834;2022-11-27T11:04:28;5.70;99.90
31455;DHT22;18084;53.028;8.834;2022-11-27T11:06:54;5.70;99.90
31455;DHT22;18084;53.028;8.834;2022-11-27T11:09:32;5.80;99.90
31455;DHT22;18084;53.028;8.834;2022-11-27T11:12:08;5.80;99.90
31455;DHT22;18084;53.028;8.834;2022-11-27T11:14:34;5.80;99.90
31455;DHT22;18084;53.028;8.834;2022-11-27T11:17:00;5.90;99.90
31455;DHT22;18084;53.028;8.834;2022-11-27T11:19:30;5.80;99.90
31455;DHT22;18084;53.028;8.834;2022-11-27T11:21:57;5.90;99.90
31455;DHT22;18084;53.028;8.834;2022-11-27T11:24:24;5.90;99.90
31455;DHT22;18084;53.028;8.834;2022-11-27T11:26:58;6.00;99.90
31455;DHT22;18084;53.028;8.834;2022-11-27T11:29:33;6.00;99.90
31455;DHT22;18084;53.028;8.834;2022-11-27T11:32:04;6.00;99.90
31455;DHT22;18084;53.028;8.834;2022-11-27T11:34:30;6.00;99.90
31455;DHT22;18084;53.028;8.834;2022-11-27T11:37:07;6.10;99.90
31455;DHT22;18084;53.028;8.834;2022-11-27T11:39:34;6.10;99.90
31455;DHT22;18084;53.028;8.834;2022-11-27T11:42:10;6.10;99.90
31455;DHT22;18084;53.028;8.834;2022-11-27T11:44:45;6.20;99.90
31455;DHT22;18084;53.028;8.834;2022-11-27T11:47:17;6.20;99.90
31455;DHT22;18084;53.028;8.834;2022-11-27T11:49:43;6.20;99.90
31455;DHT22;18084;53.028;8.834;2022-11-27T11:54:38;6.30;99.90
31455;DHT22;18084;53.028;8.834;2022-11-27T11:57:13;6.40;99.90
31455;DHT22;18084;53.028;8.834;2022-11-27T11:59:57;6.40;99.90
31455;DHT22;18084;53.028;8.834;2022-11-27T12:02:43;6.40;99.90
31455;DHT22;18084;53.028;8.834;2022-11-27T12:05:30;6.40;99.90
31455;DHT22;18084;53.028;8.834;2022-11-27T12:10:47;6.50;99.90
31455;DHT22;18084;53.028;8.834;2022-11-27T12:13:32;6.50;99.90
31455;DHT22;18084;53.028;8.834;2022-11-27T12:16:02;6.50;99.90
31455;DHT22;18084;53.028;8.834;2022-11-27T12:23:35;6.60;99.90
31455;DHT22;18084;53.028;8.834;2022-11-27T12:26:10;6.60;99.90
31455;DHT22;18084;53.028;8.834;2022-11-27T12:31:32;6.70;99.90
31455;DHT22;18084;53.028;8.834;2022-11-27T12:36:32;6.80;99.90
31455;DHT22;18084;53.028;8.834;2022-11-27T12:39:08;6.80;99.90
31455;DHT22;18084;53.028;8.834;2022-11-27T12:41:41;6.80;99.90
31455;DHT22;18084;53.028;8.834;2022-11-27T12:44:29;6.80;99.90
31455;DHT22;18084;53.028;8.834;2022-11-27T12:46:55;6.70;99.90
31455;DHT22;18084;53.028;8.834;2022-11-27T12:49:24;6.80;99.90
31455;DHT22;18084;53.028;8.834;2022-11-27T12:51:57;6.70;99.90
31455;DHT22;18084;53.028;8.834;2022-11-27T12:54:25;6.70;99.90
31455;DHT22;18084;53.028;8.834;2022-11-27T12:56:55;6.80;99.90
31455;DHT22;18084;53.028;8.834;2022-11-27T13:04:27;6.80;99.90
31455;DHT22;18084;53.028;8.834;2022-11-27T13:07:05;6.80;99.90
31455;DHT22;18084;53.028;8.834;2022-11-27T13:09:57;6.80;99.90
31455;DHT22;18084;53.028;8.834;2022-11-27T13:12:22;6.80;99.90
31455;DHT22;18084;53.028;8.834;2022-11-27T13:14:57;6.80;99.90
31455;DHT22;18084;53.028;8.834;2022-11-27T13:17:24;6.90;99.90
31455;DHT22;18084;53.028;8.834;2022-11-27T13:19:51;6.80;99.90
31455;DHT22;18084;53.028;8.834;2022-11-27T13:22:28;6.80;99.90
31455;DHT22;18084;53.028;8.834;2022-11-27T13:24:58;6.80;99.90
31455;DHT22;18084;53.028;8.834;2022-11-27T13:27:25;6.80;99.90
31455;DHT22;18084;53.028;8.834;2022-11-27T13:32:30;6.80;99.90
31455;DHT22;18084;53.028;8.834;2022-11-27T13:34:57;6.80;99.90
31455;DHT22;18084;53.028;8.834;2022-11-27T13:39:49;6.80;99.90
31455;DHT22;18084;53.028;8.834;2022-11-27T13:42:22;6.80;99.90
31455;DHT22;18084;53.028;8.834;2022-11-27T13:44:55;6.80;99.90
31455;DHT22;18084;53.028;8.834;2022-11-27T13:47:21;6.80;99.90
31455;DHT22;18084;53.028;8.834;2022-11-27T13:52:32;6.70;99.90
31455;DHT22;18084;53.028;8.834;2022-11-27T13:54:58;6.70;99.90
31455;DHT22;18084;53.028;8.834;2022-11-27T13:57:24;6.70;99.90
31455;DHT22;18084;53.028;8.834;2022-11-27T14:02:22;6.70;99.90
31455;DHT22;18084;53.028;8.834;2022-11-27T14:04:51;6.70;99.90
31455;DHT22;18084;53.028;8.834;2022-11-27T14:07:17;6.70;99.90
31455;DHT22;18084;53.028;8.834;2022-11-27T14:12:13;6.70;99.90
31455;DHT22;18084;53.028;8.834;2022-11-27T14:14:40;6.70;99.90
31455;DHT22;18084;53.028;8.834;2022-11-27T14:17:20;6.70;99.90
31455;DHT22;18084;53.028;8.834;2022-11-27T14:19:56;6.70;99.90
31455;DHT22;18084;53.028;8.834;2022-11-27T14:22:33;6.70;99.90
31455;DHT22;18084;53.028;8.834;2022-11-27T14:24:59;6.70;99.90
31455;DHT22;18084;53.028;8.834;2022-11-27T14:27:25;6.70;99.90
31455;DHT22;18084;53.028;8.834;2022-11-27T14:29:52;6.70;99.90
31455;DHT22;18084;53.028;8.834;2022-11-27T14:32:19;6.70;99.90
31455;DHT22;18084;53.028;8.834;2022-11-27T14:34:44;6.70;99.90
31455;DHT22;18084;53.028;8.834;2022-11-27T14:37:25;6.70;99.90
31455;DHT22;18084;53.028;8.834;2022-11-27T14:39:50;6.70;99.90
31455;DHT22;18084;53.028;8.834;2022-11-27T14:44:45;6.70;99.90
31455;DHT22;18084;53.028;8.834;2022-11-27T14:47:14;6.70;99.90
31455;DHT22;18084;53.028;8.834;2022-11-27T14:49:41;6.70;99.90
31455;DHT22;18084;53.028;8.834;2022-11-27T14:52:07;6.60;99.90
31455;DHT22;18084;53.028;8.834;2022-11-27T14:54:38;6.70;99.90
31455;DHT22;18084;53.028;8.834;2022-11-27T14:57:04;6.60;99.90
31455;DHT22;18084;53.028;8.834;2022-11-27T14:59:31;6.70;99.90
31455;DHT22;18084;53.028;8.834;2022-11-27T15:02:18;6.60;99.90
31455;DHT22;18084;53.028;8.834;2022-11-27T15:04:43;6.60;99.90
31455;DHT22;18084;53.028;8.834;2022-11-27T15:07:16;6.60;99.90
31455;DHT22;18084;53.028;8.834;2022-11-27T15:09:46;6.60;99.90
31455;DHT22;18084;53.028;8.834;2022-11-27T15:14:45;6.60;99.90
31455;DHT22;18084;53.028;8.834;2022-11-27T15:17:16;6.60;99.90
31455;DHT22;18084;53.028;8.834;2022-11-27T15:19:44;6.60;99.90
31455;DHT22;18084;53.028;8.834;2022-11-27T15:22:14;6.60;99.90
31455;DHT22;18084;53.028;8.834;2022-11-27T15:24:40;6.60;99.90
31455;DHT22;18084;53.028;8.834;2022-11-27T15:27:16;6.60;99.90
31455;DHT22;18084;53.028;8.834;2022-11-27T15:32:20;6.60;99.90
31455;DHT22;18084;53.028;8.834;2022-11-27T15:34:46;6.50;99.90
31455;DHT22;18084;53.028;8.834;2022-11-27T15:37:28;6.50;99.90
31455;DHT22;18084;53.028;8.834;2022-11-27T15:39:55;6.50;99.90
31455;DHT22;18084;53.028;8.834;2022-11-27T15:42:21;6.50;99.90
31455;DHT22;18084;53.028;8.834;2022-11-27T15:44:48;6.40;99.90
31455;DHT22;18084;53.028;8.834;2022-11-27T15:47:25;6.40;99.90
31455;DHT22;18084;53.028;8.834;2022-11-27T15:49:51;6.40;99.90
31455;DHT22;18084;53.028;8.834;2022-11-27T15:52:17;6.40;99.90
31455;DHT22;18084;53.028;8.834;2022-11-27T15:54:42;6.40;99.90
31455;DHT22;18084;53.028;8.834;2022-11-27T15:57:08;6.40;99.90
31455;DHT22;18084;53.028;8.834;2022-11-27T15:59:33;6.40;99.90
31455;DHT22;18084;53.028;8.834;2022-11-27T16:01:58;6.40;99.90
31455;DHT22;18084;53.028;8.834;2022-11-27T16:04:24;6.40;99.90
31455;DHT22;18084;53.028;8.834;2022-11-27T16:06:49;6.40;99.90
31455;DHT22;18084;53.028;8.834;2022-11-27T16:09:15;6.40;99.90
31455;DHT22;18084;53.028;8.834;2022-11-27T16:11:40;6.40;99.90
31455;DHT22;18084;53.028;8.834;2022-11-27T16:14:06;6.40;99.90
31455;DHT22;18084;53.028;8.834;2022-11-27T16:16:32;6.30;99.90
31455;DHT22;18084;53.028;8.834;2022-11-27T16:18:58;6.40;99.90
31455;DHT22;18084;53.028;8.834;2022-11-27T16:21:25;6.40;99.90
31455;DHT22;18084;53.028;8.834;2022-11-27T16:23:51;6.30;99.90
31455;DHT22;18084;53.028;8.834;2022-11-27T16:26:20;6.30;99.90
31455;DHT22;18084;53.028;8.834;2022-11-27T16:28:45;6.30;99.90
31455;DHT22;18084;53.028;8.834;2022-11-27T16:31:11;6.30;99.90
31455;DHT22;18084;53.028;8.834;2022-11-27T16:33:37;6.30;99.90
31455;DHT22;18084;53.028;8.834;2022-11-27T16:36:07;6.30;99.90
31455;DHT22;18084;53.028;8.834;2022-11-27T16:38:33;6.30;99.90
31455;DHT22;18084;53.028;8.834;2022-11-27T16:40:59;6.30;99.90
31455;DHT22;18084;53.028;8.834;2022-11-27T16:43:25;6.20;99.90
31455;DHT22;18084;53.028;8.834;2022-11-27T16:45:50;6.20;99.90
31455;DHT22;18084;53.028;8.834;2022-11-27T16:48:16;6.30;99.90
31455;DHT22;18084;53.028;8.834;2022-11-27T16:50:41;6.20;99.90
31455;DHT22;18084;53.028;8.834;2022-11-27T16:53:07;6.30;99.90
31455;DHT22;18084;53.028;8.834;2022-11-27T16:55:32;6.20;99.90
31455;DHT22;18084;53.028;8.834;2022-11-27T16:57:58;6.20;99.90
31455;DHT22;18084;53.028;8.834;2022-11-27T17:00:23;6.20;99.90
31455;DHT22;18084;53.028;8.834;2022-11-27T17:02:49;6.20;99.90
31455;DHT22;18084;53.028;8.834;2022-11-27T17:05:14;6.20;99.90
31455;DHT22;18084;53.028;8.834;2022-11-27T17:07:39;6.20;99.90
31455;DHT22;18084;53.028;8.834;2022-11-27T17:10:07;6.20;99.90
31455;DHT22;18084;53.028;8.834;2022-11-27T17:12:32;6.20;99.90
31455;DHT22;18084;53.028;8.834;2022-11-27T17:14:58;6.20;99.90
31455;DHT22;18084;53.028;8.834;2022-11-27T17:17:23;6.30;99.90
31455;DHT22;18084;53.028;8.834;2022-11-27T17:19:49;6.30;99.90
31455;DHT22;18084;53.028;8.834;2022-11-27T17:22:15;6.30;99.90
31455;DHT22;18084;53.028;8.834;2022-11-27T17:24:41;6.30;99.90
31455;DHT22;18084;53.028;8.834;2022-11-27T17:27:06;6.30;99.90
31455;DHT22;18084;53.028;8.834;2022-11-27T17:29:31;6.30;99.90
31455;DHT22;18084;53.028;8.834;2022-11-27T17:31:57;6.30;99.90
31455;DHT22;18084;53.028;8.834;2022-11-27T17:34:22;6.30;99.90
31455;DHT22;18084;53.028;8.834;2022-11-27T17:36:48;6.30;99.90
31455;DHT22;18084;53.028;8.834;2022-11-27T17:39:17;6.30;99.90
31455;DHT22;18084;53.028;8.834;2022-11-27T17:41:43;6.30;99.90
31455;DHT22;18084;53.028;8.834;2022-11-27T17:44:11;6.30;99.90
31455;DHT22;18084;53.028;8.834;2022-11-27T17:46:37;6.10;99.90
31455;DHT22;18084;53.028;8.834;2022-11-27T17:49:04;6.20;99.90
31455;DHT22;18084;53.028;8.834;2022-11-27T17:51:30;7.10;99.90
31455;DHT22;18084;53.028;8.834;2022-11-27T17:54:00;6.20;99.90
31455;DHT22;18084;53.028;8.834;2022-11-27T17:56:26;6.20;99.90
31455;DHT22;18084;53.028;8.834;2022-11-27T17:58:52;6.30;99.90
31455;DHT22;18084;53.028;8.834;2022-11-27T18:01:19;6.20;99.90
31455;DHT22;18084;53.028;8.834;2022-11-27T18:03:45;6.30;99.90
31455;DHT22;18084;53.028;8.834;2022-11-27T18:06:11;7.60;99.90
31455;DHT22;18084;53.028;8.834;2022-11-27T18:08:36;6.30;99.90
31455;DHT22;18084;53.028;8.834;2022-11-27T18:11:09;6.30;99.90
31455;DHT22;18084;53.028;8.834;2022-11-27T18:13:36;6.30;99.90
31455;DHT22;18084;53.028;8.834;2022-11-27T18:16:02;6.30;99.90
31455;DHT22;18084;53.028;8.834;2022-11-27T18:18:28;6.30;99.90
31455;DHT22;18084;53.028;8.834;2022-11-27T18:20:53;6.30;99.90
31455;DHT22;18084;53.028;8.834;2022-11-27T18:23:18;6.30;99.90
31455;DHT22;18084;53.028;8.834;2022-11-27T18:25:44;6.40;99.90